Time;durP1;ratioP1;P1;durP2;ratioP2;P2;SDS_P1;SDS_P2;PMS_P1;PMS_P2;Temp;Humidity;BMP_temperature;BMP_pressure;BME280_temperature;BME280_humidity;BME280_pressure;Samples;Min_cycle;Max_cycle;Signal;HPM_P1;HPM_P2
2023/06/08 00:00:44;;;;;;;8.35;7.38;;;20.10;56.40;;;;;;5015265;28;20053;-52
2023/06/08 00:03:12;;;;;;;7.85;6.68;;;20.10;56.40;;;;;;5017276;28;20050;-54
2023/06/08 00:05:47;;;;;;;11.90;6.95;;;20.10;56.40;;;;;;5018984;28;20062;-54
2023/06/08 00:08:14;;;;;;;11.10;7.45;;;20.10;56.60;;;;;;5019382;28;20523;-53
2023/06/08 00:10:45;;;;;;;12.13;8.10;;;20.10;56.50;;;;;;5012172;28;20058;-54
2023/06/08 00:13:13;;;;;;;10.95;7.30;;;20.00;56.50;;;;;;5013725;28;20041;-53
2023/06/08 00:15:40;;;;;;;8.85;7.28;;;20.00;56.50;;;;;;5019109;28;20053;-55
2023/06/08 00:18:08;;;;;;;8.57;7.07;;;20.00;56.50;;;;;;5018658;28;20046;-56
2023/06/08 00:20:35;;;;;;;9.60;7.57;;;20.00;56.50;;;;;;5011456;28;20438;-54
2023/06/08 00:23:04;;;;;;;9.35;7.75;;;20.00;56.50;;;;;;5018288;28;20550;-54
2023/06/08 00:25:32;;;;;;;12.27;8.27;;;20.00;56.60;;;;;;5015666;28;20060;-54
2023/06/08 00:27:59;;;;;;;9.65;7.43;;;20.00;56.50;;;;;;5017770;28;20075;-53
2023/06/08 00:30:26;;;;;;;9.82;7.95;;;20.00;56.50;;;;;;5014726;28;20049;-56
2023/06/08 00:32:54;;;;;;;9.57;6.93;;;20.00;56.60;;;;;;5007875;28;20050;-54
2023/06/08 00:35:21;;;;;;;13.45;8.45;;;20.00;56.60;;;;;;5012031;28;20056;-56
2023/06/08 00:37:48;;;;;;;10.82;7.57;;;20.00;56.60;;;;;;5017285;28;20566;-55
2023/06/08 00:40:17;;;;;;;9.43;6.95;;;19.90;56.50;;;;;;5012600;28;20064;-54
2023/06/08 00:42:44;;;;;;;9.90;7.80;;;19.90;56.60;;;;;;5012071;28;20502;-54
2023/06/08 00:45:11;;;;;;;12.85;9.35;;;19.90;56.60;;;;;;5017158;28;20485;-54
2023/06/08 00:47:39;;;;;;;15.52;10.10;;;19.80;56.70;;;;;;5017785;28;20512;-54
2023/06/08 00:50:08;;;;;;;12.15;9.30;;;19.80;56.70;;;;;;5010220;28;20059;-54
2023/06/08 00:52:35;;;;;;;13.88;10.50;;;19.80;56.80;;;;;;5014487;28;20041;-55
2023/06/08 00:55:03;;;;;;;15.50;11.40;;;19.80;56.90;;;;;;5016106;28;20049;-50
2023/06/08 00:57:33;;;;;;;13.20;10.77;;;19.70;57.10;;;;;;5013165;28;20068;-49
2023/06/08 01:00:04;;;;;;;14.48;9.68;;;19.70;57.40;;;;;;5016263;28;20053;-49
2023/06/08 01:05:12;;;;;;;12.05;8.77;;;19.60;57.40;;;;;;5034029;28;20508;-51
2023/06/08 01:07:49;;;;;;;10.80;8.32;;;19.60;57.40;;;;;;5032639;28;20049;-53
2023/06/08 01:10:25;;;;;;;12.55;9.10;;;19.50;57.40;;;;;;5037352;28;20053;-51
2023/06/08 01:13:01;;;;;;;13.05;8.63;;;19.50;57.50;;;;;;5035439;28;20056;-51
2023/06/08 01:15:33;;;;;;;10.45;8.55;;;19.50;57.50;;;;;;5033359;28;20057;-52
2023/06/08 01:18:04;;;;;;;12.07;8.90;;;19.50;57.40;;;;;;5034775;28;20424;-51
2023/06/08 01:20:40;;;;;;;10.38;7.97;;;19.40;57.30;;;;;;5037941;28;20060;-51
2023/06/08 01:23:23;;;;;;;12.02;8.10;;;19.40;57.30;;;;;;5036670;28;20053;-51
2023/06/08 01:25:55;;;;;;;9.40;8.10;;;19.40;57.30;;;;;;5031769;28;20389;-51
2023/06/08 01:28:23;;;;;;;9.50;8.18;;;19.40;57.30;;;;;;5035752;28;20049;-53
2023/06/08 01:30:51;;;;;;;9.57;8.35;;;19.40;57.30;;;;;;5032179;28;21680;-52
2023/06/08 01:33:20;;;;;;;11.23;8.13;;;19.30;57.20;;;;;;5037671;28;20428;-52
2023/06/08 01:35:57;;;;;;;11.25;9.05;;;19.30;57.20;;;;;;5034325;28;20503;-50
2023/06/08 01:38:29;;;;;;;13.70;9.68;;;19.30;57.80;;;;;;5031381;28;20059;-52
2023/06/08 01:41:01;;;;;;;11.30;8.45;;;19.30;57.40;;;;;;5033064;28;20049;-52
2023/06/08 01:43:31;;;;;;;12.73;8.90;;;19.30;57.40;;;;;;5034046;28;20044;-50
2023/06/08 01:46:03;;;;;;;10.77;8.95;;;19.30;57.40;;;;;;5033833;28;20435;-51
2023/06/08 01:48:31;;;;;;;11.82;8.80;;;19.30;57.50;;;;;;5033570;28;20053;-52
2023/06/08 01:50:59;;;;;;;10.40;8.60;;;19.30;57.50;;;;;;5035905;28;20505;-52
2023/06/08 01:53:27;;;;;;;14.40;9.73;;;19.30;57.50;;;;;;5036262;28;20413;-50
2023/06/08 01:55:54;;;;;;;12.75;9.57;;;19.30;57.60;;;;;;5029994;28;20420;-50
2023/06/08 01:58:22;;;;;;;10.95;8.25;;;19.20;57.60;;;;;;5037245;28;20052;-49
2023/06/08 02:00:50;;;;;;;11.02;8.43;;;19.20;57.70;;;;;;5033772;28;20065;-49
2023/06/08 02:03:17;;;;;;;10.63;7.47;;;19.30;57.80;;;;;;5026558;28;20095;-51
2023/06/08 02:05:44;;;;;;;10.00;8.32;;;19.20;57.80;;;;;;5008970;28;20087;-51
2023/06/08 02:08:12;;;;;;;9.13;7.57;;;19.20;57.80;;;;;;5014146;28;20058;-52
2023/06/08 02:10:39;;;;;;;12.10;7.88;;;19.20;57.90;;;;;;5016976;28;20057;-50
2023/06/08 02:13:06;;;;;;;9.80;8.10;;;19.20;57.90;;;;;;5014007;28;20057;-52
2023/06/08 02:15:35;;;;;;;13.00;9.10;;;19.20;58.00;;;;;;5015870;28;20068;-50
2023/06/08 02:18:03;;;;;;;10.98;8.23;;;19.30;58.10;;;;;;5016271;28;20053;-52
2023/06/08 02:20:33;;;;;;;9.70;7.75;;;19.20;58.00;;;;;;5017732;28;20049;-51
2023/06/08 02:23:00;;;;;;;11.93;7.18;;;19.30;58.00;;;;;;5010439;28;20065;-51
2023/06/08 02:25:27;;;;;;;12.20;7.85;;;19.30;58.00;;;;;;5015404;28;20065;-50
2023/06/08 02:27:55;;;;;;;13.43;7.70;;;19.30;57.90;;;;;;5015762;28;20068;-45
2023/06/08 02:30:22;;;;;;;11.27;7.97;;;19.30;57.90;;;;;;5017913;28;20049;-51
2023/06/08 02:32:53;;;;;;;10.43;7.85;;;19.30;57.80;;;;;;5017261;28;20056;-50
2023/06/08 02:35:20;;;;;;;12.30;9.18;;;19.30;57.80;;;;;;5021686;28;20413;-53
2023/06/08 02:37:47;;;;;;;13.27;9.95;;;19.30;57.80;;;;;;5018169;28;20049;-51
2023/06/08 02:40:14;;;;;;;12.30;9.55;;;19.20;57.80;;;;;;5012564;28;20065;-48
2023/06/08 02:42:42;;;;;;;13.65;10.35;;;19.20;57.70;;;;;;5018819;28;20413;-50
2023/06/08 02:45:10;;;;;;;14.93;10.38;;;19.10;57.50;;;;;;5021061;28;20065;-52
2023/06/08 02:47:37;;;;;;;11.85;9.57;;;19.10;57.40;;;;;;5019452;28;20053;-51
2023/06/08 02:50:06;;;;;;;15.77;10.93;;;19.00;57.40;;;;;;5017884;28;20245;-51
2023/06/08 02:52:34;;;;;;;15.98;10.65;;;19.00;57.80;;;;;;5017820;28;20064;-49
2023/06/08 02:55:01;;;;;;;14.48;11.55;;;18.90;57.80;;;;;;5019056;28;20507;-51
2023/06/08 02:57:28;;;;;;;14.30;10.50;;;18.80;57.70;;;;;;5012768;28;20049;-52
2023/06/08 02:59:55;;;;;;;15.32;11.38;;;18.80;57.80;;;;;;5016881;28;20523;-49
2023/06/08 03:02:23;;;;;;;15.85;12.07;;;18.70;57.90;;;;;;5020395;28;20053;-50
2023/06/08 03:04:52;;;;;;;12.30;10.77;;;18.60;58.00;;;;;;5019383;28;20061;-49
2023/06/08 03:07:21;;;;;;;14.40;11.63;;;18.60;58.30;;;;;;5013608;28;20515;-51
2023/06/08 03:09:48;;;;;;;15.77;10.90;;;18.50;58.30;;;;;;5018609;28;20069;-51
2023/06/08 03:12:16;;;;;;;15.35;11.93;;;18.50;58.30;;;;;;5015124;28;20060;-50
2023/06/08 03:14:43;;;;;;;14.05;10.23;;;18.40;58.40;;;;;;5020019;28;20049;-50
2023/06/08 03:17:10;;;;;;;14.52;11.57;;;18.40;58.60;;;;;;5007624;28;20057;-50
2023/06/08 03:19:37;;;;;;;18.40;13.02;;;18.40;58.70;;;;;;5009712;28;20589;-49
2023/06/08 03:22:06;;;;;;;18.65;13.32;;;18.40;59.20;;;;;;5012856;28;20068;-49
2023/06/08 03:24:35;;;;;;;16.08;12.30;;;18.30;59.30;;;;;;5018241;28;20493;-52
2023/06/08 03:27:03;;;;;;;17.25;12.65;;;18.30;59.20;;;;;;5014432;28;20045;-51
2023/06/08 03:29:31;;;;;;;16.02;12.02;;;18.30;59.40;;;;;;5017634;28;20050;-52
2023/06/08 03:31:59;;;;;;;18.60;12.73;;;18.30;59.50;;;;;;5012640;28;20056;-49
2023/06/08 03:34:26;;;;;;;16.60;11.52;;;18.20;59.40;;;;;;5015983;28;20041;-48
2023/06/08 03:36:54;;;;;;;19.05;11.75;;;18.20;59.60;;;;;;5015550;28;20520;-49
2023/06/08 03:39:21;;;;;;;16.77;12.02;;;18.20;59.80;;;;;;5013558;28;20050;-51
2023/06/08 03:41:50;;;;;;;15.45;12.07;;;18.20;60.00;;;;;;5021606;28;20052;-52
2023/06/08 03:44:18;;;;;;;15.35;11.75;;;18.10;60.20;;;;;;5013660;28;20056;-52
2023/06/08 03:46:48;;;;;;;15.40;11.02;;;18.10;60.50;;;;;;5016181;28;20057;-51
2023/06/08 03:49:15;;;;;;;13.43;10.15;;;18.10;61.20;;;;;;5018711;28;20413;-50
2023/06/08 03:51:42;;;;;;;10.05;8.98;;;18.10;60.50;;;;;;5014860;28;20057;-52
2023/06/08 03:54:10;;;;;;;13.43;10.60;;;18.10;60.50;;;;;;5013972;28;20072;-49
2023/06/08 03:56:37;;;;;;;10.68;8.43;;;18.10;60.50;;;;;;5018568;28;20382;-49
2023/06/08 03:59:06;;;;;;;10.77;8.50;;;18.10;60.50;;;;;;5014836;28;20054;-48
2023/06/08 04:01:35;;;;;;;10.07;7.63;;;18.20;60.50;;;;;;5010843;28;20489;-52
2023/06/08 04:04:02;;;;;;;9.82;7.70;;;18.20;60.40;;;;;;5014682;28;20057;-52
2023/06/08 04:06:33;;;;;;;13.32;8.32;;;18.20;60.40;;;;;;5015991;28;20053;-52
2023/06/08 04:09:01;;;;;;;28.88;17.15;;;18.20;60.20;;;;;;5018862;28;20084;-50
2023/06/08 04:11:28;;;;;;;22.45;14.27;;;18.20;60.10;;;;;;5017886;28;20060;-49
2023/06/08 04:13:55;;;;;;;12.70;10.07;;;18.30;60.80;;;;;;5018535;28;20489;-45
2023/06/08 04:16:24;;;;;;;10.98;8.10;;;18.30;60.00;;;;;;5009328;28;20058;-47
2023/06/08 04:18:53;;;;;;;10.30;8.70;;;18.30;60.00;;;;;;5009432;28;20643;-50
2023/06/08 04:21:21;;;;;;;9.48;8.00;;;18.30;59.90;;;;;;5016508;28;20069;-52
2023/06/08 04:23:48;;;;;;;8.90;7.75;;;18.30;59.80;;;;;;5018833;28;20516;-52
2023/06/08 04:26:17;;;;;;;11.82;7.28;;;18.40;59.70;;;;;;5014119;28;20054;-49
2023/06/08 04:28:49;;;;;;;9.27;7.80;;;18.40;59.60;;;;;;5016936;28;20061;-52
2023/06/08 04:31:16;;;;;;;10.10;6.95;;;18.40;59.50;;;;;;5008675;28;20409;-51
2023/06/08 04:33:45;;;;;;;10.20;7.20;;;18.40;59.50;;;;;;5016334;28;20068;-51
2023/06/08 04:36:12;;;;;;;11.40;8.73;;;18.40;59.50;;;;;;5017562;28;20053;-49
2023/06/08 04:38:41;;;;;;;13.35;10.50;;;18.40;59.50;;;;;;5015405;28;20056;-50
2023/06/08 04:41:08;;;;;;;14.63;10.27;;;18.40;59.50;;;;;;5016592;28;20504;-50
2023/06/08 04:43:35;;;;;;;13.68;9.80;;;18.40;59.30;;;;;;5016547;28;20068;-51
2023/06/08 04:46:05;;;;;;;13.18;10.45;;;18.40;59.40;;;;;;5017966;28;20072;-48
2023/06/08 04:48:33;;;;;;;10.80;8.13;;;18.30;59.50;;;;;;5011075;28;20066;-50
2023/06/08 04:51:04;;;;;;;12.75;10.23;;;18.30;59.60;;;;;;5019405;28;20516;-47
2023/06/08 04:53:33;;;;;;;12.85;10.20;;;18.30;59.80;;;;;;5015943;28;20049;-47
2023/06/08 04:56:02;;;;;;;12.77;10.30;;;18.30;59.80;;;;;;5016225;28;20045;-50
2023/06/08 04:58:30;;;;;;;14.85;9.65;;;18.20;60.10;;;;;;5007642;28;20054;-50
2023/06/08 05:00:58;;;;;;;12.25;10.07;;;18.20;60.20;;;;;;5018745;28;20064;-50
2023/06/08 05:03:26;;;;;;;12.52;9.68;;;18.20;60.30;;;;;;5014919;28;20053;-49
2023/06/08 05:05:54;;;;;;;12.10;9.85;;;18.20;60.50;;;;;;5020279;28;20405;-47
2023/06/08 05:08:23;;;;;;;11.07;9.40;;;18.20;60.60;;;;;;5015788;28;20057;-49
2023/06/08 05:10:50;;;;;;;13.77;10.90;;;18.20;60.70;;;;;;5015560;28;20056;-45
2023/06/08 05:13:17;;;;;;;15.13;10.85;;;18.20;61.20;;;;;;5014376;28;20485;-49
2023/06/08 05:15:47;;;;;;;14.35;11.77;;;18.20;61.50;;;;;;5015472;28;20061;-50
2023/06/08 05:18:14;;;;;;;13.90;10.63;;;18.20;61.90;;;;;;5018219;28;20053;-49
2023/06/08 05:20:42;;;;;;;13.40;9.93;;;18.20;62.00;;;;;;5012926;28;20105;-50
2023/06/08 05:23:09;;;;;;;15.32;11.20;;;18.30;62.50;;;;;;5014418;28;20060;-51
2023/06/08 05:25:37;;;;;;;12.32;9.35;;;18.30;62.80;;;;;;5014771;28;20416;-45
2023/06/08 05:28:05;;;;;;;12.60;10.00;;;18.30;62.80;;;;;;5010201;28;20183;-48
2023/06/08 05:30:32;;;;;;;16.88;11.13;;;18.40;62.70;;;;;;5014447;28;20069;-50
2023/06/08 05:33:00;;;;;;;11.00;9.77;;;18.40;62.90;;;;;;5017599;28;20056;-47
2023/06/08 05:35:28;;;;;;;15.32;11.30;;;18.40;63.20;;;;;;5009914;28;20045;-53
2023/06/08 05:37:55;;;;;;;13.07;11.05;;;18.40;62.90;;;;;;5012358;28;20532;-51
2023/06/08 05:40:24;;;;;;;16.55;11.48;;;18.50;62.80;;;;;;5019299;28;20076;-50
2023/06/08 05:42:52;;;;;;;13.30;10.80;;;18.50;62.70;;;;;;5019791;28;20065;-49
2023/06/08 05:45:20;;;;;;;11.23;9.75;;;18.50;62.60;;;;;;5018564;28;20065;-47
2023/06/08 05:47:49;;;;;;;13.23;9.43;;;18.60;62.60;;;;;;5020991;28;20065;-50
2023/06/08 05:50:17;;;;;;;11.38;9.48;;;18.60;62.40;;;;;;5020007;28;20424;-47
2023/06/08 05:52:50;;;;;;;13.73;10.48;;;18.60;61.80;;;;;;5018503;28;20057;-50
2023/06/08 05:55:17;;;;;;;14.00;10.87;;;18.60;61.90;;;;;;5019677;28;20049;-50
2023/06/08 05:57:45;;;;;;;12.82;10.57;;;18.70;62.10;;;;;;5020596;28;20425;-46
2023/06/08 06:00:15;;;;;;;13.52;10.48;;;18.70;61.90;;;;;;5020906;28;20060;-49
2023/06/08 06:02:42;;;;;;;10.95;8.32;;;18.70;62.10;;;;;;5016042;28;20421;-49
2023/06/08 06:05:10;;;;;;;10.05;7.72;;;18.80;62.10;;;;;;5020386;28;20052;-50
2023/06/08 06:07:38;;;;;;;9.65;7.75;;;18.80;62.10;;;;;;5023586;28;20053;-44
2023/06/08 06:10:06;;;;;;;11.48;7.90;;;18.90;62.20;;;;;;5017578;28;20524;-50
2023/06/08 06:12:33;;;;;;;11.45;7.90;;;19.00;62.20;;;;;;5018272;28;20486;-51
2023/06/08 06:15:01;;;;;;;12.77;7.90;;;19.00;62.00;;;;;;5025360;28;20053;-50
2023/06/08 06:17:29;;;;;;;9.90;7.53;;;19.10;61.90;;;;;;5017961;28;20417;-47
2023/06/08 06:19:56;;;;;;;8.35;6.90;;;19.20;61.70;;;;;;5023857;28;20064;-49
2023/06/08 06:22:24;;;;;;;10.30;7.05;;;19.20;61.50;;;;;;5019588;28;20440;-47
2023/06/08 06:24:51;;;;;;;8.20;7.18;;;19.30;61.40;;;;;;5022102;28;20049;-49
2023/06/08 06:27:19;;;;;;;9.65;7.78;;;19.40;61.40;;;;;;5021792;28;20072;-49
2023/06/08 06:29:48;;;;;;;9.27;7.32;;;19.40;60.80;;;;;;5023239;28;20424;-47
2023/06/08 06:32:15;;;;;;;8.65;6.97;;;19.50;60.70;;;;;;5021218;28;20057;-48
2023/06/08 06:34:44;;;;;;;9.15;6.72;;;19.60;60.60;;;;;;5014320;28;20065;-50
2023/06/08 06:37:11;;;;;;;8.35;6.32;;;19.60;60.50;;;;;;5021449;28;20409;-50
2023/06/08 06:39:39;;;;;;;9.30;6.75;;;19.70;60.60;;;;;;5021519;28;20062;-45
2023/06/08 06:42:06;;;;;;;15.25;7.28;;;19.70;59.90;;;;;;5022667;28;21447;-48
2023/06/08 06:44:34;;;;;;;8.70;6.35;;;19.80;60.00;;;;;;5023819;28;20065;-50
2023/06/08 06:47:01;;;;;;;8.40;6.93;;;19.90;60.10;;;;;;5019178;28;20060;-48
2023/06/08 06:49:28;;;;;;;17.00;9.13;;;19.90;60.00;;;;;;5023841;28;20060;-48
2023/06/08 06:51:57;;;;;;;12.25;7.75;;;20.00;59.80;;;;;;5016177;28;20423;-47
2023/06/08 06:54:24;;;;;;;8.82;6.65;;;20.00;59.60;;;;;;5019864;28;20052;-48
2023/06/08 06:56:51;;;;;;;14.35;7.25;;;20.10;59.40;;;;;;5017050;28;20054;-52
2023/06/08 06:59:20;;;;;;;8.95;6.57;;;20.10;59.00;;;;;;5018354;28;20057;-47
2023/06/08 07:01:47;;;;;;;9.15;6.68;;;20.20;58.60;;;;;;5022596;28;20080;-50
2023/06/08 07:04:15;;;;;;;7.32;6.40;;;20.20;58.60;;;;;;5020344;28;20058;-47
2023/06/08 07:06:43;;;;;;;10.43;7.28;;;20.30;59.10;;;;;;5016428;28;20054;-52
2023/06/08 07:09:11;;;;;;;9.68;7.15;;;20.30;58.80;;;;;;5017324;28;20053;-52
2023/06/08 07:11:39;;;;;;;8.63;6.40;;;20.40;58.60;;;;;;5020734;28;20083;-53
2023/06/08 07:14:06;;;;;;;7.95;6.88;;;20.40;58.40;;;;;;5020897;28;20057;-47
2023/06/08 07:16:33;;;;;;;6.50;5.60;;;20.50;58.60;;;;;;5022625;28;20056;-48
2023/06/08 07:19:01;;;;;;;10.90;6.53;;;20.60;58.80;;;;;;5022406;28;20053;-53
2023/06/08 07:21:30;;;;;;;9.05;7.10;;;20.60;58.60;;;;;;5022311;28;20072;-49
2023/06/08 07:23:58;;;;;;;9.50;7.18;;;20.70;57.90;;;;;;5023261;28;20053;-53
2023/06/08 07:26:26;;;;;;;10.52;6.95;;;20.70;57.70;;;;;;5019891;28;20052;-49
2023/06/08 07:28:54;;;;;;;9.20;6.57;;;20.80;57.60;;;;;;5021823;28;20069;-50
2023/06/08 07:31:22;;;;;;;9.95;6.97;;;20.80;58.00;;;;;;5008234;28;20056;-52
2023/06/08 07:33:53;;;;;;;8.02;6.18;;;20.90;58.20;;;;;;5020454;28;20416;-52
2023/06/08 07:36:20;;;;;;;7.68;5.63;;;21.00;58.40;;;;;;5016283;28;20396;-50
2023/06/08 07:38:50;;;;;;;7.82;6.70;;;21.00;58.30;;;;;;5016808;28;20068;-45
2023/06/08 07:41:17;;;;;;;10.98;6.93;;;21.10;58.00;;;;;;5020493;28;20497;-47
2023/06/08 07:43:46;;;;;;;9.63;7.00;;;21.10;57.60;;;;;;5021269;28;20056;-51
2023/06/08 07:46:14;;;;;;;7.70;6.47;;;21.20;57.80;;;;;;5022673;28;20060;-50
2023/06/08 07:48:41;;;;;;;6.50;5.75;;;21.20;57.80;;;;;;5018491;28;20053;-50
2023/06/08 07:51:08;;;;;;;10.10;6.72;;;21.20;57.80;;;;;;5022830;28;20414;-48
2023/06/08 07:53:36;;;;;;;10.77;6.80;;;21.30;57.60;;;;;;5016927;28;20052;-51
2023/06/08 07:56:04;;;;;;;6.47;5.35;;;21.30;57.00;;;;;;5019803;28;20524;-47
2023/06/08 07:58:31;;;;;;;8.27;6.18;;;21.40;57.10;;;;;;5020388;28;20053;-53
2023/06/08 08:01:00;;;;;;;5.63;5.00;;;21.40;56.70;;;;;;5019713;28;20057;-52
2023/06/08 08:03:28;;;;;;;6.57;5.22;;;21.50;56.80;;;;;;5022172;28;20509;-51
2023/06/08 08:05:56;;;;;;;8.50;5.63;;;21.50;56.50;;;;;;5021832;28;20045;-52
2023/06/08 08:08:23;;;;;;;7.25;5.43;;;21.60;56.70;;;;;;5017732;28;20516;-51
2023/06/08 08:10:50;;;;;;;7.13;5.28;;;21.70;56.20;;;;;;5022168;28;20524;-50
2023/06/08 08:13:18;;;;;;;7.22;5.40;;;21.80;56.30;;;;;;5020064;28;20457;-51
2023/06/08 08:15:45;;;;;;;8.20;5.18;;;21.80;56.60;;;;;;5020401;28;20053;-50
2023/06/08 08:18:14;;;;;;;6.18;5.50;;;21.90;56.50;;;;;;5018311;28;20060;-52
2023/06/08 08:20:41;;;;;;;8.35;5.38;;;22.00;56.40;;;;;;5022010;28;20058;-49
2023/06/08 08:23:08;;;;;;;9.20;6.18;;;22.10;56.20;;;;;;5014599;28;20061;-49
2023/06/08 08:25:35;;;;;;;10.45;5.82;;;22.20;56.00;;;;;;5019486;28;20053;-45
2023/06/08 08:28:03;;;;;;;8.82;5.60;;;22.20;55.00;;;;;;5017182;28;20057;-51
2023/06/08 08:30:30;;;;;;;8.85;5.57;;;22.20;54.70;;;;;;5020376;28;21127;-50
2023/06/08 08:32:57;;;;;;;7.75;5.20;;;22.30;54.20;;;;;;5020298;28;20057;-51
2023/06/08 08:35:29;;;;;;;6.55;5.10;;;22.30;54.70;;;;;;5020971;28;20413;-47
2023/06/08 08:37:56;;;;;;;7.47;5.40;;;22.40;55.00;;;;;;5017171;28;20053;-49
2023/06/08 08:40:24;;;;;;;9.45;5.03;;;22.50;54.60;;;;;;5021414;28;20405;-51
2023/06/08 08:42:59;;;;;;;7.40;5.22;;;22.50;54.60;;;;;;5021486;28;20053;-48
2023/06/08 08:45:31;;;;;;;7.25;5.53;;;22.60;54.80;;;;;;5017443;28;20053;-48
2023/06/08 08:48:01;;;;;;;6.18;4.97;;;22.60;54.60;;;;;;5018991;28;20060;-53
2023/06/08 08:50:33;;;;;;;6.05;4.72;;;22.80;54.80;;;;;;5015183;28;20053;-48
2023/06/08 08:53:01;;;;;;;7.15;4.88;;;22.80;54.70;;;;;;5019115;28;20049;-53
2023/06/08 08:55:33;;;;;;;8.38;5.75;;;22.90;54.80;;;;;;5019452;28;20045;-48
2023/06/08 08:58:02;;;;;;;6.72;4.57;;;23.00;54.60;;;;;;5020640;28;20052;-50
2023/06/08 09:00:31;;;;;;;10.05;5.50;;;23.00;54.30;;;;;;5022236;28;20054;-54
2023/06/08 09:02:58;;;;;;;9.20;5.57;;;23.10;54.20;;;;;;5016146;28;20053;-56
2023/06/08 09:05:25;;;;;;;5.47;4.53;;;23.10;54.10;;;;;;5019100;28;20053;-54
2023/06/08 09:07:55;;;;;;;11.13;5.90;;;23.20;54.00;;;;;;5013846;28;20056;-48
2023/06/08 09:10:25;;;;;;;5.40;4.72;;;23.30;53.70;;;;;;5015174;28;20049;-50
2023/06/08 09:12:54;;;;;;;7.90;5.07;;;23.30;53.50;;;;;;5020510;28;20076;-52
2023/06/08 09:15:30;;;;;;;7.47;5.45;;;23.40;53.60;;;;;;5019474;28;20515;-49
2023/06/08 09:18:02;;;;;;;7.03;5.38;;;23.40;52.50;;;;;;5016746;28;20057;-50
2023/06/08 09:20:32;;;;;;;7.75;5.07;;;23.40;52.70;;;;;;5016896;28;20066;-56
2023/06/08 09:23:15;;;;;;;10.15;6.72;;;23.50;52.90;;;;;;5018931;28;20057;-48
2023/06/08 09:25:43;;;;;;;7.85;5.70;;;23.60;52.90;;;;;;5017527;28;20053;-47
2023/06/08 09:28:18;;;;;;;8.85;5.40;;;23.60;53.20;;;;;;5018449;28;20058;-47
2023/06/08 09:30:48;;;;;;;8.88;5.70;;;23.70;53.20;;;;;;5016785;28;20512;-45
2023/06/08 09:33:20;;;;;;;6.43;5.05;;;23.70;52.60;;;;;;5018545;28;20060;-45
2023/06/08 09:35:48;;;;;;;10.18;5.90;;;23.80;52.60;;;;;;5016782;28;20058;-46
2023/06/08 09:38:18;;;;;;;5.53;4.63;;;23.90;52.00;;;;;;5020892;28;20444;-51
2023/06/08 09:40:46;;;;;;;6.82;5.03;;;23.90;52.40;;;;;;5024128;28;20501;-55
2023/06/08 09:43:29;;;;;;;6.20;4.60;;;24.00;52.20;;;;;;5020477;28;20057;-52
2023/06/08 09:45:56;;;;;;;7.00;5.22;;;24.10;52.30;;;;;;5025868;28;20061;-57
2023/06/08 09:48:24;;;;;;;6.38;5.38;;;24.20;52.10;;;;;;5015023;28;20052;-47
2023/06/08 09:50:55;;;;;;;6.82;5.10;;;24.20;52.00;;;;;;5022823;28;20402;-53
2023/06/08 09:53:24;;;;;;;5.88;4.43;;;24.20;51.90;;;;;;5019009;28;20052;-54
2023/06/08 09:55:54;;;;;;;5.30;4.80;;;24.30;51.80;;;;;;5022139;28;20369;-50
2023/06/08 09:58:25;;;;;;;7.95;5.30;;;24.30;51.60;;;;;;5019460;28;20056;-51
2023/06/08 10:00:54;;;;;;;6.22;4.57;;;24.40;51.80;;;;;;5024352;28;20056;-54
2023/06/08 10:03:28;;;;;;;6.97;5.10;;;24.50;51.80;;;;;;5022820;28;20061;-56
2023/06/08 10:05:58;;;;;;;7.30;5.35;;;24.50;51.30;;;;;;5020670;28;20053;-57
2023/06/08 10:08:28;;;;;;;7.53;5.53;;;24.50;51.30;;;;;;5019646;28;20049;-54
2023/06/08 10:10:56;;;;;;;10.30;5.32;;;24.60;51.30;;;;;;5024220;28;20053;-53
2023/06/08 10:13:24;;;;;;;6.18;5.20;;;24.60;50.60;;;;;;5020214;28;20057;-53
2023/06/08 10:15:53;;;;;;;6.68;5.30;;;24.70;50.40;;;;;;5022666;28;20515;-51
2023/06/08 10:18:20;;;;;;;5.30;4.55;;;24.70;50.60;;;;;;5023446;28;20427;-49
2023/06/08 10:20:48;;;;;;;6.80;4.88;;;24.80;50.70;;;;;;5023573;28;20056;-48
2023/06/08 10:23:16;;;;;;;6.75;5.07;;;24.80;50.80;;;;;;5021333;28;20057;-51
2023/06/08 10:25:45;;;;;;;6.18;5.10;;;24.80;50.50;;;;;;5017563;28;20062;-55
2023/06/08 10:28:14;;;;;;;7.53;5.15;;;24.90;50.30;;;;;;5017777;28;20049;-53
2023/06/08 10:30:41;;;;;;;7.72;4.97;;;25.00;50.50;;;;;;5019356;28;20068;-54
2023/06/08 10:33:10;;;;;;;7.70;5.28;;;25.00;50.10;;;;;;5020139;28;20132;-51
2023/06/08 10:35:41;;;;;;;9.93;5.22;;;25.00;50.30;;;;;;5021562;28;20156;-44
2023/06/08 10:38:09;;;;;;;7.63;5.32;;;25.10;48.60;;;;;;5021338;28;21391;-49
2023/06/08 10:40:46;;;;;;;6.53;4.72;;;25.10;49.10;;;;;;5022659;28;20425;-49
2023/06/08 10:43:14;;;;;;;6.55;5.32;;;25.20;49.10;;;;;;5022238;28;20417;-43
2023/06/08 10:45:44;;;;;;;7.47;5.13;;;25.20;49.50;;;;;;5023640;28;20080;-45
2023/06/08 10:48:15;;;;;;;7.65;4.97;;;25.20;48.80;;;;;;5022613;28;20125;-52
2023/06/08 10:50:43;;;;;;;7.50;5.18;;;25.20;49.20;;;;;;5021425;28;20409;-45
2023/06/08 10:53:11;;;;;;;7.32;5.50;;;25.30;49.60;;;;;;5020627;28;20061;-49
2023/06/08 10:55:38;;;;;;;6.20;4.80;;;25.30;49.50;;;;;;5023585;28;20387;-49
2023/06/08 10:58:15;;;;;;;6.38;4.70;;;25.30;49.50;;;;;;5023432;28;20056;-52
2023/06/08 11:00:43;;;;;;;5.53;4.78;;;25.40;49.70;;;;;;5024233;28;20424;-46
2023/06/08 11:03:16;;;;;;;6.57;4.78;;;25.40;49.50;;;;;;5022008;28;20067;-47
2023/06/08 11:05:45;;;;;;;5.60;4.70;;;25.40;49.80;;;;;;5022179;28;20057;-45
2023/06/08 11:08:12;;;;;;;6.15;4.80;;;25.50;49.80;;;;;;5021445;28;20409;-50
2023/06/08 11:10:42;;;;;;;5.72;5.13;;;25.50;49.70;;;;;;5021811;28;20054;-54
2023/06/08 11:13:12;;;;;;;8.80;5.28;;;25.60;49.50;;;;;;5024479;28;21101;-51
2023/06/08 11:15:41;;;;;;;5.50;4.70;;;25.60;49.30;;;;;;5023492;28;20400;-53
2023/06/08 11:18:09;;;;;;;5.30;4.57;;;25.60;49.80;;;;;;5022670;28;20513;-49
2023/06/08 11:20:38;;;;;;;7.57;4.90;;;25.70;49.40;;;;;;5019623;28;20049;-51
2023/06/08 11:23:08;;;;;;;5.28;4.75;;;25.70;49.30;;;;;;5013082;28;20045;-53
2023/06/08 11:25:36;;;;;;;5.28;4.75;;;25.80;49.20;;;;;;5018091;28;20434;-46
2023/06/08 11:28:03;;;;;;;6.22;5.03;;;25.80;48.80;;;;;;5022816;28;20053;-51
2023/06/08 11:30:33;;;;;;;6.97;5.20;;;25.80;48.80;;;;;;5021253;28;20501;-51
2023/06/08 11:33:03;;;;;;;5.10;4.60;;;25.90;48.90;;;;;;5022237;28;20494;-44
2023/06/08 11:35:30;;;;;;;11.65;5.82;;;25.90;48.60;;;;;;5021590;28;20065;-45
2023/06/08 11:38:00;;;;;;;7.47;5.22;;;26.00;47.30;;;;;;5021527;28;20417;-44
2023/06/08 11:40:28;;;;;;;6.20;4.82;;;26.00;47.80;;;;;;5021331;28;20068;-45
2023/06/08 11:42:57;;;;;;;5.95;5.35;;;26.00;47.90;;;;;;5022811;28;20053;-44
2023/06/08 11:45:25;;;;;;;6.38;5.05;;;26.00;47.40;;;;;;5020488;28;20355;-53
2023/06/08 11:47:54;;;;;;;6.70;5.32;;;26.10;47.50;;;;;;5020804;28;20057;-50
2023/06/08 11:50:22;;;;;;;8.93;5.32;;;26.10;47.30;;;;;;5026865;28;20053;-52
2023/06/08 11:52:49;;;;;;;5.85;4.95;;;26.10;47.90;;;;;;5020255;28;20053;-45
2023/06/08 11:55:25;;;;;;;8.50;5.50;;;26.10;47.90;;;;;;5022938;28;20406;-48
2023/06/08 11:57:56;;;;;;;7.00;5.35;;;26.10;47.50;;;;;;5021297;28;20065;-50
2023/06/08 12:00:26;;;;;;;7.88;5.20;;;26.20;47.10;;;;;;5021630;28;20054;-50
2023/06/08 12:02:56;;;;;;;6.50;4.78;;;26.30;47.40;;;;;;5021341;28;20057;-46
2023/06/08 12:05:25;;;;;;;6.57;4.63;;;26.30;47.80;;;;;;5021420;28;20052;-54
2023/06/08 12:07:58;;;;;;;8.10;5.10;;;26.30;47.90;;;;;;5015698;28;20053;-57
2023/06/08 12:10:33;;;;;;;5.00;4.50;;;26.40;47.40;;;;;;5011451;28;20506;-54
2023/06/08 12:13:05;;;;;;;5.70;5.10;;;26.50;47.10;;;;;;5022028;28;20049;-49
2023/06/08 12:15:35;;;;;;;6.22;4.75;;;26.50;46.00;;;;;;5019354;28;20424;-47
2023/06/08 12:18:04;;;;;;;6.20;4.97;;;26.60;46.30;;;;;;5016138;28;20064;-51
2023/06/08 12:20:33;;;;;;;5.05;4.55;;;26.60;46.00;;;;;;5020950;28;20053;-57
2023/06/08 12:23:01;;;;;;;7.13;4.95;;;26.70;46.10;;;;;;5018766;28;20041;-54
2023/06/08 12:25:28;;;;;;;6.57;4.93;;;26.70;46.00;;;;;;5017738;28;20065;-57
2023/06/08 12:27:55;;;;;;;5.95;4.53;;;26.80;45.70;;;;;;5017443;28;20050;-51
2023/06/08 12:30:23;;;;;;;7.00;4.75;;;26.80;45.90;;;;;;5018541;28;20061;-53
2023/06/08 12:32:50;;;;;;;8.50;5.10;;;26.80;45.80;;;;;;5019505;28;20421;-46
2023/06/08 12:35:19;;;;;;;5.35;4.72;;;26.90;45.90;;;;;;5014437;28;20053;-57
2023/06/08 12:37:48;;;;;;;6.07;4.97;;;26.90;45.20;;;;;;5018279;28;20061;-57
2023/06/08 12:40:16;;;;;;;5.78;4.95;;;26.90;45.20;;;;;;5017412;28;20053;-50
2023/06/08 12:42:49;;;;;;;6.95;4.80;;;26.90;45.20;;;;;;5017833;28;20057;-51
2023/06/08 12:45:17;;;;;;;5.22;4.65;;;26.90;45.50;;;;;;5020833;28;20401;-51
2023/06/08 12:47:45;;;;;;;7.93;4.80;;;26.90;45.70;;;;;;5019051;28;20572;-53
2023/06/08 12:50:12;;;;;;;5.00;4.47;;;26.90;46.00;;;;;;5019773;28;20053;-52